.
WxDataArchive / Data Records for 2006-07-14
2006-07-13 July 2006 2006-07-15

Data Records for Friday, 14 July 2006

Time	Temp	Chill	HIndex	Humid	Dewpt	 Wind 	HiWind	WindDir	Rain 	Barom 
-----	----	-----	------	-----	-----	------	------	-------	-----	----- 
00:00	73.7	73.7	73.7	79	66.8	0	1	90	0.00	29.935 
00:05	73.5	73.5	73.5	78	66.2	0	1	90	0.00	29.935 
00:10	73.3	73.3	73.3	78	66.0	1	2	90	0.00	29.935 
00:15	73.2	73.2	73.2	78	65.9	1	2	90	0.00	29.936 
00:20	73.2	73.2	73.2	78	65.9	1	2	90	0.00	29.936 
00:25	73.0	73.0	73.0	78	65.7	1	2	90	0.00	29.936 
00:30	73.0	73.0	73.0	78	65.7	0	2	90	0.00	29.938 
00:35	72.8	72.8	72.8	78	65.5	0	1	90	0.00	29.938 
00:40	72.8	72.8	72.8	79	65.9	0	1	90	0.00	29.938 
00:45	72.8	72.8	72.8	79	65.9	1	2	90	0.00	29.938 
00:50	72.7	72.7	72.7	80	66.2	1	2	90	0.00	29.938 
00:55	72.5	72.5	72.5	80	66.0	1	2	90	0.00	29.938 
01:00	72.3	72.3	72.3	81	66.1	1	2	90	0.00	29.933 
01:05	72.3	72.3	72.3	81	66.1	1	3	90	0.00	29.933 
01:10	72.1	72.1	72.1	81	65.9	1	3	68	0.00	29.933 
01:15	72.0	72.0	72.0	82	66.2	1	2	68	0.00	29.928 
01:20	71.8	71.8	71.8	82	66.0	1	3	68	0.00	29.928 
01:25	71.8	71.8	71.8	83	66.3	1	2	68	0.00	29.928 
01:30	71.6	71.6	71.6	83	66.2	0	2	68	0.00	29.924 
01:35	71.5	71.5	71.5	83	66.1	0	1	68	0.00	29.924 
01:40	71.3	71.3	71.3	84	66.2	0	2	68	0.00	29.924 
01:45	71.1	71.1	71.1	84	66.0	1	2	68	0.00	29.922 
01:50	71.1	71.1	71.1	84	66.0	1	2	68	0.00	29.922 
01:55	70.9	70.9	70.9	84	65.8	0	1	68	0.00	29.922 
02:00	70.9	70.9	70.9	84	65.8	0	1	68	0.00	29.921 
02:05	70.8	70.8	70.8	84	65.7	0	1	68	0.00	29.921 
02:10	70.8	70.8	70.8	85	66.1	0	1	68	0.00	29.921 
02:15	70.6	70.6	70.6	85	65.9	0	1	68	0.00	29.920 
02:20	70.4	70.4	70.4	86	66.0	0	1	68	0.00	29.920 
02:25	70.4	70.4	70.4	85	65.7	0	0	---	0.00	29.920 
02:30	70.3	70.3	70.3	86	65.9	0	0	---	0.00	29.919 
02:35	70.1	70.1	70.1	86	65.7	0	0	---	0.00	29.919 
02:40	69.9	69.9	69.9	87	65.8	0	0	---	0.00	29.919 
02:45	69.8	69.8	69.8	87	65.7	0	0	---	0.00	29.915 
02:50	69.6	69.6	69.6	88	65.9	0	0	---	0.00	29.915 
02:55	69.4	69.4	69.4	88	65.7	0	0	---	0.00	29.915 
03:00	69.3	69.3	69.3	88	65.6	0	0	---	0.00	29.911 
03:05	68.9	68.9	68.9	89	65.5	0	0	---	0.00	29.911 
03:10	68.8	68.8	68.8	89	65.4	0	0	---	0.00	29.911 
03:15	68.6	68.6	68.6	89	65.2	0	0	---	0.00	29.909 
03:20	68.6	68.6	68.6	90	65.5	0	0	---	0.00	29.909 
03:25	68.6	68.6	68.6	91	65.9	0	0	---	0.00	29.909 
03:30	68.6	68.6	68.6	91	65.9	0	0	---	0.00	29.903 
03:35	68.4	68.4	68.4	91	65.7	0	0	---	0.00	29.903 
03:40	68.4	68.4	68.4	91	65.7	0	0	---	0.00	29.903 
03:45	68.3	68.3	68.3	91	65.6	0	0	---	0.00	29.902 
03:50	68.3	68.3	68.3	92	65.9	0	0	---	0.00	29.902 
03:55	68.3	68.3	68.3	92	65.9	0	0	---	0.00	29.902 
04:00	68.3	68.3	68.3	92	65.9	0	0	---	0.00	29.906 
04:05	68.4	68.4	68.4	92	66.0	0	0	---	0.00	29.906 
04:10	68.4	68.4	68.4	92	66.0	0	0	---	0.00	29.906 
04:15	68.3	68.3	68.3	92	65.9	0	0	---	0.00	29.904 
04:20	68.3	68.3	68.3	92	65.9	0	0	---	0.00	29.904 
04:25	68.3	68.3	68.3	92	65.9	0	0	---	0.00	29.904 
04:30	68.4	68.4	68.4	92	66.0	0	1	68	0.00	29.902 
04:35	68.4	68.4	68.4	92	66.0	0	1	68	0.00	29.902 
04:40	68.4	68.4	68.4	92	66.0	0	1	68	0.00	29.902 
04:45	68.4	68.4	68.4	92	66.0	0	1	68	0.00	29.894 
04:50	68.4	68.4	68.4	92	66.0	0	1	68	0.00	29.894 
04:55	68.4	68.4	68.4	92	66.0	0	2	68	0.00	29.894 
05:00	68.4	68.4	68.4	92	66.0	0	2	68	0.00	29.895 
05:05	68.4	68.4	68.4	92	66.0	0	2	68	0.00	29.895 
05:10	68.4	68.4	68.4	92	66.0	0	2	68	0.00	29.895 
05:15	68.4	68.4	68.4	92	66.0	0	2	68	0.00	29.893 
05:20	68.4	68.4	68.4	92	66.0	1	2	68	0.00	29.893 
05:25	68.4	68.4	68.4	92	66.0	0	1	68	0.00	29.893 
05:30	68.4	68.4	68.4	92	66.0	0	2	68	0.00	29.889 
05:35	68.3	68.3	68.3	92	65.9	0	1	68	0.00	29.889 
05:40	68.3	68.3	68.3	93	66.2	0	1	68	0.00	29.889 
05:45	68.3	68.3	68.3	93	66.2	0	1	68	0.00	29.888 
05:50	68.3	68.3	68.3	93	66.2	0	1	68	0.00	29.888 
05:55	68.1	68.1	68.1	93	66.0	0	1	68	0.00	29.888 
06:00	68.1	68.1	68.1	93	66.0	0	1	68	0.00	29.887 
06:05	68.1	68.1	68.1	93	66.0	0	0	---	0.00	29.887 
06:10	68.1	68.1	68.1	93	66.0	0	1	68	0.00	29.887 
06:15	68.1	68.1	68.1	93	66.0	0	1	68	0.00	29.885 
06:20	67.9	67.9	67.9	93	65.8	0	0	---	0.00	29.885 
06:25	67.9	67.9	67.9	94	66.1	0	0	---	0.00	29.885 
06:30	68.1	68.1	68.1	94	66.3	0	1	68	0.00	29.887 
06:35	68.1	68.1	68.1	94	66.3	1	2	68	0.00	29.887 
06:40	68.3	68.3	68.3	94	66.5	0	2	68	0.00	29.887 
06:45	68.3	68.3	68.3	94	66.5	0	1	68	0.00	29.885 
06:50	68.4	68.4	68.4	94	66.6	1	3	68	0.00	29.885 
06:55	68.4	68.4	68.4	94	66.6	0	3	68	0.00	29.885 
07:00	68.4	68.4	68.4	94	66.6	0	1	68	0.00	29.884 
07:05	68.4	68.4	68.4	94	66.6	0	1	68	0.00	29.884 
07:10	68.6	68.6	68.6	94	66.8	1	2	68	0.00	29.884 
07:15	68.6	68.6	68.6	94	66.8	0	2	68	0.00	29.887 
07:20	68.6	68.6	68.6	94	66.8	0	1	68	0.00	29.887 
07:25	68.6	68.6	68.6	94	66.8	0	1	68	0.00	29.887 
07:30	68.8	68.8	68.8	94	67.0	0	0	---	0.00	29.891 
07:35	68.9	68.9	68.9	94	67.1	0	1	68	0.00	29.891 
07:40	69.1	69.1	69.1	93	67.0	0	1	68	0.00	29.891 
07:45	69.4	69.4	69.4	93	67.3	0	1	68	0.00	29.892 
07:50	69.8	69.8	69.8	92	67.4	0	2	68	0.00	29.892 
07:55	70.1	70.1	70.1	92	67.7	0	1	68	0.00	29.892 
08:00	70.4	70.4	70.4	91	67.6	0	1	68	0.00	29.890 
08:05	71.1	71.1	71.1	90	68.0	0	1	68	0.00	29.890 
08:10	71.6	71.6	71.6	88	67.8	0	1	68	0.00	29.890 
08:15	72.3	72.3	72.3	87	68.2	0	2	68	0.00	29.891 
08:20	72.8	72.8	72.8	86	68.4	1	2	68	0.00	29.891 
08:25	73.3	73.3	73.3	85	68.5	1	2	68	0.00	29.891 
08:30	73.9	73.9	73.9	84	68.7	1	2	68	0.00	29.890 
08:35	74.4	74.4	74.4	85	69.6	0	3	68	0.00	29.890 
08:40	75.1	75.1	75.5	82	69.2	0	2	68	0.00	29.890 
08:45	75.8	75.8	76.6	81	69.5	1	2	68	0.00	29.893 
08:50	76.3	76.3	77.4	81	70.0	1	2	90	0.00	29.893 
08:55	76.8	76.8	78.2	80	70.1	1	3	90	0.00	29.893 
09:00	77.2	77.2	78.9	79	70.2	1	3	90	0.00	29.888 
09:05	77.6	77.6	79.6	79	70.6	1	4	112	0.00	29.888 
09:10	77.9	77.9	80.1	79	70.8	1	3	112	0.00	29.888 
09:15	78.3	78.3	80.8	78	70.9	1	4	90	0.00	29.891 
09:20	78.8	78.8	81.6	77	71.0	1	3	90	0.00	29.891 
09:25	79.2	79.2	82.3	77	71.3	1	3	90	0.00	29.891 
09:30	79.6	79.6	83.0	76	71.3	2	4	90	0.00	29.891 
09:35	80.1	80.1	83.9	76	71.8	1	3	270	0.00	29.891 
09:40	80.7	80.7	84.9	75	72.0	1	2	0	0.00	29.891 
09:45	81.2	81.2	85.9	75	72.5	1	4	22	0.00	29.897 
09:50	81.6	81.6	86.3	73	72.1	1	2	90	0.00	29.897 
09:55	82.4	82.4	87.7	72	72.4	1	5	112	0.00	29.897 
10:00	83.0	83.0	88.4	70	72.2	1	5	135	0.00	29.892 
10:05	83.0	83.0	88.9	72	73.0	1	4	270	0.00	29.892 
10:10	83.2	83.2	89.1	71	72.8	1	3	22	0.00	29.892 
10:15	83.6	83.6	89.6	70	72.8	1	6	68	0.00	29.891 
10:20	83.6	83.6	89.9	71	73.2	2	6	112	0.00	29.891 
10:25	83.4	83.4	89.2	70	72.6	2	5	90	0.00	29.891 
10:30	83.4	83.4	89.8	72	73.4	1	4	90	0.00	29.887 
10:35	83.4	83.4	89.5	71	73.0	2	4	90	0.00	29.887 
10:40	84.0	84.0	90.8	71	73.6	2	4	90	0.00	29.887 
10:45	84.5	84.5	91.2	69	73.2	1	4	90	0.00	29.880 
10:50	84.7	84.7	92.0	70	73.8	1	4	90	0.00	29.880 
10:55	84.9	84.9	92.1	69	73.6	2	5	248	0.00	29.880 
11:00	85.3	85.3	92.6	68	73.5	1	4	90	0.00	29.879 
11:05	85.5	85.5	93.1	68	73.7	1	4	68	0.00	29.879 
11:10	85.9	85.9	94.0	68	74.1	2	4	90	0.00	29.879 
11:15	86.1	86.1	94.0	67	73.8	2	5	270	0.00	29.873 
11:20	86.3	86.3	93.6	65	73.1	2	5	315	0.00	29.873 
11:25	86.1	86.1	93.6	66	73.4	3	6	90	0.00	29.873 
11:30	86.1	86.1	94.0	67	73.8	2	5	112	0.00	29.863 
11:35	85.7	85.7	93.5	68	73.9	2	5	90	0.00	29.863 
11:40	85.5	85.5	93.5	69	74.1	1	3	270	0.00	29.863 
11:45	85.7	85.7	93.5	68	73.9	1	3	22	0.00	29.859 
11:50	85.7	85.7	93.1	67	73.4	3	10	90	0.00	29.859 
11:55	85.5	85.5	92.7	67	73.3	3	9	90	0.00	29.859 
12:00	85.5	85.5	92.3	66	72.8	3	10	90	0.00	29.851 
12:05	85.5	85.5	93.1	68	73.7	2	7	90	0.00	29.851 
12:10	85.5	85.5	92.7	67	73.3	2	6	90	0.00	29.851 
12:15	85.7	85.7	93.9	69	74.3	2	5	112	0.00	29.850 
12:20	85.9	85.9	93.6	67	73.6	3	7	112	0.00	29.850 
12:25	86.5	86.5	94.5	66	73.8	3	9	90	0.00	29.850 
12:30	86.5	86.5	94.5	66	73.8	3	6	270	0.00	29.849 
12:35	86.7	86.7	94.5	65	73.5	3	6	270	0.00	29.849 
12:40	87.0	87.0	95.2	65	73.8	3	7	90	0.00	29.849 
12:45	87.0	87.0	94.8	64	73.3	3	7	90	0.00	29.841 
12:50	87.2	87.2	95.7	65	74.0	3	9	248	0.00	29.841 
12:55	86.5	86.5	94.1	65	73.3	3	7	270	0.00	29.841 
13:00	86.7	86.7	94.1	64	73.0	4	10	90	0.00	29.834 
13:05	86.7	86.7	94.1	64	73.0	4	15	90	0.00	29.834 
13:10	86.3	86.3	93.6	65	73.1	3	7	90	0.00	29.834 
13:15	85.9	85.9	93.2	66	73.2	3	10	112	0.00	29.827 
13:20	85.9	85.9	93.2	66	73.2	2	6	22	0.00	29.827 
13:25	85.5	85.5	91.9	65	72.4	3	9	68	0.00	29.827 
13:30	85.1	85.1	91.8	67	72.9	3	9	315	0.00	29.822 
13:35	85.5	85.5	91.9	65	72.4	4	12	270	0.00	29.822 
13:40	85.9	85.9	92.0	63	71.8	4	9	248	0.00	29.822 
13:45	85.9	85.9	92.4	64	72.3	3	6	22	0.00	29.829 
13:50	85.9	85.9	91.3	61	70.9	4	11	270	0.00	29.829 
13:55	85.9	85.9	91.6	62	71.3	5	13	270	0.00	29.829 
14:00	85.7	85.7	91.6	63	71.6	4	7	270	0.00	29.831 
14:05	86.3	86.3	93.6	65	73.1	2	7	270	0.00	29.831 
14:10	87.4	87.4	93.9	60	71.8	3	7	248	0.00	29.831 
14:15	88.2	88.2	95.1	59	72.0	4	12	270	0.00	29.824 
14:20	88.6	88.6	94.6	56	70.9	2	5	270	0.00	29.824 
14:25	88.2	88.2	92.9	54	69.4	3	10	270	0.00	29.824 
14:30	87.0	87.0	92.3	58	70.4	4	11	270	0.00	29.823 
14:35	86.3	86.3	90.9	58	69.7	4	13	270	0.00	29.823 
14:40	85.5	85.5	89.8	59	69.5	4	9	270	0.00	29.823 
14:45	84.9	84.9	89.7	62	70.4	3	6	248	0.00	29.824 
14:50	84.7	84.7	89.6	63	70.7	2	5	270	0.00	29.824 
14:55	84.5	84.5	89.3	63	70.5	2	9	248	0.00	29.824 
15:00	84.5	84.5	89.6	64	71.0	3	5	270	0.00	29.825 
15:05	84.3	84.3	89.2	64	70.8	3	6	270	0.00	29.825 
15:10	84.1	84.1	89.1	65	71.0	2	6	270	0.00	29.825 
15:15	84.1	84.1	89.4	66	71.5	2	5	270	0.00	29.818 
15:20	83.8	83.8	89.7	69	72.5	2	5	248	0.00	29.818 
15:25	80.7	80.7	84.4	72	70.8	3	8	292	0.00	29.818 
15:30	77.2	77.2	78.9	81	70.9	1	6	315	0.01	29.839 
15:35	75.8	75.8	76.1	86	71.3	1	3	315	0.00	29.839 
15:40	75.3	75.3	75.0	88	71.5	1	3	112	0.01	29.839 
15:45	74.9	74.9	74.9	88	71.1	0	1	112	0.04	29.850 
15:50	74.6	74.6	74.6	89	71.1	1	5	90	0.06	29.850 
15:55	74.6	74.6	74.6	91	71.8	0	1	90	0.00	29.850 
16:00	75.8	75.8	75.3	93	73.6	0	2	90	0.00	29.838 
16:05	76.1	76.1	75.9	93	73.9	1	5	270	0.00	29.838 
16:10	75.8	75.8	75.9	88	72.0	1	3	270	0.00	29.838 
16:15	75.4	75.4	75.0	89	71.9	1	3	292	0.00	29.834 
16:20	75.8	75.8	75.9	88	72.0	1	3	270	0.00	29.834 
16:25	76.3	76.3	76.8	89	72.8	0	2	68	0.00	29.834 
16:30	76.8	76.8	77.9	87	72.6	0	3	68	0.00	29.829 
16:35	77.4	77.4	79.2	85	72.5	1	3	45	0.00	29.829 
16:40	77.9	77.9	80.2	84	72.7	0	2	338	0.00	29.829 
16:45	78.3	78.3	80.9	82	72.3	0	2	0	0.00	29.828 
16:50	78.6	78.6	81.6	83	73.0	0	3	45	0.00	29.828 
16:55	78.6	78.6	81.5	81	72.3	0	2	45	0.00	29.828 
17:00	78.3	78.3	80.9	82	72.3	0	2	22	0.00	29.832 
17:05	77.9	77.9	80.1	81	71.6	1	4	22	0.00	29.832 
17:10	78.1	78.1	80.5	82	72.1	1	5	270	0.00	29.832 
17:15	78.1	78.1	80.5	82	72.1	0	2	248	0.00	29.829 
17:20	77.9	77.9	80.1	81	71.6	0	2	338	0.00	29.829 
17:25	78.1	78.1	80.5	82	72.1	0	2	338	0.00	29.829 
17:30	78.3	78.3	80.9	81	72.0	0	2	315	0.00	29.828 
17:35	78.6	78.6	81.5	81	72.3	0	1	315	0.00	29.828 
17:40	78.6	78.6	81.4	79	71.5	0	1	315	0.00	29.828 
17:45	78.1	78.1	80.5	80	71.4	0	2	315	0.00	29.831 
17:50	77.7	77.7	79.8	79	70.7	0	1	292	0.00	29.831 
17:55	77.6	77.6	79.6	80	70.9	0	1	292	0.00	29.831 
18:00	77.0	77.0	78.5	83	71.4	0	1	292	0.00	29.834 
18:05	76.5	76.5	77.5	84	71.3	0	2	315	0.00	29.834 
18:10	76.1	76.1	76.7	85	71.2	0	2	315	0.00	29.834 
18:15	76.3	76.3	77.0	86	71.8	0	1	315	0.00	29.830 
18:20	76.3	76.3	77.1	85	71.4	0	1	315	0.00	29.830 
18:25	76.5	76.5	77.4	86	72.0	0	1	315	0.00	29.830 
18:30	76.5	76.5	77.5	85	71.6	0	1	315	0.00	29.829 
18:35	76.7	76.7	77.8	85	71.8	0	2	315	0.00	29.829 
18:40	76.8	76.8	78.0	85	71.9	0	1	315	0.00	29.829 
18:45	76.8	76.8	78.1	84	71.6	0	0	---	0.00	29.828 
18:50	77.0	77.0	78.4	84	71.8	0	1	315	0.00	29.828 
18:55	77.0	77.0	78.4	84	71.8	0	1	315	0.00	29.828 
19:00	77.0	77.0	78.4	84	71.8	0	2	315	0.00	29.825 
19:05	77.2	77.2	78.8	85	72.3	0	0	---	0.00	29.825 
19:10	77.0	77.0	78.4	84	71.8	0	2	270	0.01	29.825 
19:15	76.8	76.8	78.0	85	71.9	0	2	270	0.00	29.827 
19:20	77.0	77.0	78.4	85	72.1	0	2	270	0.00	29.827 
19:25	77.4	77.4	79.2	83	71.8	1	4	270	0.00	29.827 
19:30	77.7	77.7	79.8	82	71.8	1	3	248	0.00	29.825 
19:35	78.1	78.1	80.5	80	71.4	1	3	270	0.00	29.825 
19:40	78.1	78.1	80.5	81	71.8	1	2	270	0.00	29.825 
19:45	78.1	78.1	80.5	81	71.8	1	3	248	0.00	29.828 
19:50	78.1	78.1	80.5	81	71.8	0	2	248	0.00	29.828 
19:55	78.1	78.1	80.5	81	71.8	1	3	248	0.00	29.828 
20:00	78.1	78.1	80.5	80	71.4	1	3	270	0.00	29.828 
20:05	78.1	78.1	80.5	80	71.4	1	3	270	0.00	29.828 
20:10	77.9	77.9	80.1	81	71.6	1	2	248	0.00	29.828 
20:15	77.9	77.9	80.1	81	71.6	1	3	248	0.00	29.823 
20:20	77.7	77.7	79.8	81	71.4	1	3	248	0.00	29.823 
20:25	77.4	77.4	79.2	81	71.1	1	2	270	0.00	29.823 
20:30	77.2	77.2	78.9	82	71.3	0	2	270	0.00	29.824 
20:35	77.0	77.0	78.5	82	71.1	0	2	270	0.00	29.824 
20:40	77.0	77.0	78.5	83	71.4	0	1	270	0.00	29.824 
20:45	76.8	76.8	78.1	83	71.2	0	1	270	0.00	29.835 
20:50	76.7	76.7	77.9	83	71.1	0	1	270	0.00	29.835 
20:55	76.5	76.5	77.6	83	70.9	0	1	270	0.00	29.835 
21:00	76.3	76.3	77.2	84	71.1	0	1	270	0.00	29.847 
21:05	76.3	76.3	77.2	84	71.1	0	0	---	0.00	29.847 
21:10	76.1	76.1	76.8	84	70.9	0	0	---	0.00	29.847 
21:15	76.0	76.0	76.6	85	71.2	0	0	---	0.00	29.851 
21:20	75.8	75.8	76.2	85	71.0	0	0	---	0.00	29.851 
21:25	75.6	75.6	75.8	86	71.1	0	0	---	0.00	29.851 
21:30	75.4	75.4	75.3	87	71.2	0	0	---	0.00	29.857 
21:35	75.3	75.3	75.1	87	71.2	0	0	---	0.00	29.857 
21:40	75.1	75.1	74.7	87	71.0	0	0	---	0.00	29.857 
21:45	74.9	74.9	74.9	88	71.1	0	0	---	0.00	29.860 
21:50	74.7	74.7	74.7	88	70.9	0	0	---	0.00	29.860 
21:55	74.6	74.6	74.6	88	70.8	0	0	---	0.00	29.860 
22:00	74.4	74.4	74.4	89	70.9	0	0	---	0.00	29.866 
22:05	74.2	74.2	74.2	89	70.7	0	0	---	0.00	29.866 
22:10	74.2	74.2	74.2	89	70.7	0	0	---	0.00	29.866 
22:15	74.0	74.0	74.0	90	70.9	0	0	---	0.00	29.875 
22:20	74.0	74.0	74.0	90	70.9	0	0	---	0.00	29.875 
22:25	73.9	73.9	73.9	91	71.1	0	0	---	0.00	29.875 
22:30	73.9	73.9	73.9	91	71.1	0	1	270	0.00	29.883 
22:35	73.7	73.7	73.7	91	70.9	0	0	---	0.00	29.883 
22:40	73.7	73.7	73.7	91	70.9	0	0	---	0.00	29.883 
22:45	73.5	73.5	73.5	92	71.0	0	0	---	0.00	29.885 
22:50	73.5	73.5	73.5	92	71.0	0	0	---	0.00	29.885 
22:55	73.3	73.3	73.3	92	70.8	0	0	---	0.00	29.885 
23:00	73.2	73.2	73.2	92	70.7	0	0	---	0.00	29.885 
23:05	73.2	73.2	73.2	92	70.7	0	0	---	0.00	29.885 
23:10	73.2	73.2	73.2	92	70.7	0	0	---	0.00	29.885 
23:15	73.2	73.2	73.2	92	70.7	0	0	---	0.00	29.886 
23:20	73.2	73.2	73.2	92	70.7	0	0	---	0.00	29.886 
23:25	73.2	73.2	73.2	93	71.0	0	0	---	0.00	29.886 
23:30	73.2	73.2	73.2	93	71.0	0	1	270	0.00	29.886 
23:35	73.3	73.3	73.3	93	71.1	0	1	270	0.00	29.886 
23:40	73.3	73.3	73.3	93	71.1	0	0	---	0.00	29.886 
23:45	73.3	73.3	73.3	93	71.1	0	1	270	0.00	29.884 
23:50	73.3	73.3	73.3	93	71.1	0	0	---	0.00	29.884 
23:55	73.2	73.2	73.2	93	71.0	0	1	270	0.00	29.884 

CoCoRaHS
IN-AL-39
A2 Web Hosting
Creative Commons License
GoDaddy
Look for:

loaded 2017-10-20 19:59:43 • last modified 2010-11-18 10:43:29
Privacy PolicyDisclaimer
• wx.awcolley.com is powered by PmWiki v.2002016 •
• all content (unless otherwise noted) © 2017 A W Colley